Tetbury, United Kingdom
Current Conditions -  °F | °C
As of 1:38 PM on Thursday 30 Oct 2014 (Local Time) from EGVA Reporting Station
Overcast Overcast  
Wind Chill: 63°   Ceiling: 3600
Heat Index: 63°   Visibility: 6mi
Dew Point: 59°   Wind: 13mph
Humidity: 88%   Direction: 220°SW
Pressure: 30.03"   Gusts: NA
Location:  51.64°N, 2.16°W
Report Text: EGVA 301338Z AUTO 22011KT 9999 SCT014 OVC036 17/15 A3003 RMK AO2
Loading
Personal Weather Stations






























Interactive Weather Map New forecast layout! Learn more

10-Day Weather Forecast

Advertisements
Track Severe Weather on mobile